Terminal Aerodrome Forecast
Issued by NWS

Home | Current Version | Previous Version | Text Only | Print | Product List | Glossary On
Versions: 1 2 3 4 5 6 7 8 9 10 11 12 13 14 15 16 17 18 19 20 21 22 23 24 25 26 27 28 29 30 31 32
000
FTUS44 KFWD 180200 AAC
TAFFTW
TAF AMD
KFTW 180259Z 1803/1824 09008KT 3SM -RA BR OVC005
     FM180400 08006KT 1SM -DZ BR OVC004
     FM180600 11005KT 3SM BR OVC005
     FM181600 14005KT P6SM OVC013
     FM182200 05005KT P6SM OVC025=

USA.gov is the U.S. government's official web portal to all federal, state and local government web resources and services.